KHRL/HRL METAR and TAF weather

Enter ICAO airport designator
Station Type Date Time Source
KHRL METAR 2021/07/26 13:52 UTC NOAA

KHRL 261352Z 16006KT 7SM CLR 27/27 A2995 RMK AO2 SLP140 T02670267 $


Station Type Date Time Source
KHRL Decoded METAR 2021/07/26 13:52 UTC NOAA

RIO GRANDE VALLEY, TX, United States (KHRL) 26-13N 97-39W 10M
Jul 26, 2021 - 09:52 AM EDT / 2021.07.26 1352 UTC
Wind: from the SSE (160 degrees) at 7 MPH (6 KT):0
Visibility: 7 mile(s):0
Sky conditions: clear
Temperature: 80.1 F (26.7 C)
Dew Point: 80.1 F (26.7 C)
Relative Humidity: 100%
Pressure (altimeter): 29.95 in. Hg (1014 hPa)
ob: KHRL 261352Z 16006KT 7SM CLR 27/27 A2995 RMK AO2 SLP140 T02670267
cycle: 14

Station Type Date Time Source
KHRL TAF 2021/07/26 13:15 UTC NOAA

TAF
AMD KHRL 261312Z 2613/2712 16008KT P6SM SKC
FM261700 12011G17KT P6SM FEW250
FM270600 16004KT 6SM BR SKC

Example: see airport list